createdAt,value
2019-01-05T00:00:32.691Z,3.10
2019-01-05T00:03:38.613Z,3.00
2019-01-05T00:06:35.415Z,3.00
2019-01-05T00:09:36.659Z,3.00
2019-01-05T00:12:33.348Z,3.00
2019-01-05T00:15:24.172Z,3.00
2019-01-05T00:18:21.199Z,3.00
2019-01-05T00:21:12.763Z,3.00
2019-01-05T00:23:58.759Z,3.00
2019-01-05T00:27:04.665Z,3.00
2019-01-05T00:29:54.847Z,3.00
2019-01-05T00:32:56.580Z,3.00
2019-01-05T00:36:08.358Z,3.00
2019-01-05T00:38:58.505Z,3.00
2019-01-05T00:41:48.330Z,3.00
2019-01-05T00:44:48.427Z,3.00
2019-01-05T00:47:38.059Z,3.00
2019-01-05T00:50:37.970Z,3.00
2019-01-05T00:53:34.825Z,3.00
2019-01-05T00:56:32.874Z,3.00
2019-01-05T00:59:22.042Z,3.00
2019-01-05T01:02:12.206Z,3.00
2019-01-05T01:05:11.112Z,3.00
2019-01-05T01:08:01.876Z,3.00
2019-01-05T01:11:05.354Z,3.00
2019-01-05T01:14:09.109Z,3.00
2019-01-05T01:17:08.643Z,3.10
2019-01-05T01:20:06.818Z,3.00
2019-01-05T01:23:03.933Z,3.00
2019-01-05T01:25:53.139Z,3.00
2019-01-05T01:28:42.889Z,3.00
2019-01-05T01:31:36.687Z,3.10
2019-01-05T01:34:35.507Z,3.00
2019-01-05T01:37:32.211Z,3.00
2019-01-05T01:40:24.502Z,3.00
2019-01-05T01:43:12.296Z,3.00
2019-01-05T01:46:02.790Z,3.00
2019-01-05T01:48:46.173Z,3.00
2019-01-05T01:51:46.555Z,3.00
2019-01-05T01:54:49.743Z,2.90
2019-01-05T01:57:42.539Z,2.90
2019-01-05T02:00:34.200Z,2.90
2019-01-05T02:03:23.751Z,2.80
2019-01-05T02:06:35.493Z,2.80
2019-01-05T02:09:22.819Z,2.80
2019-01-05T02:12:18.641Z,2.80
2019-01-05T02:15:13.986Z,2.70
2019-01-05T02:18:48.700Z,2.80
2019-01-05T02:22:24.339Z,2.80
2019-01-05T02:25:37.691Z,2.80
2019-01-05T02:29:16.327Z,2.80
2019-01-05T02:32:49.304Z,2.80
2019-01-05T02:36:40.635Z,2.70
2019-01-05T02:40:12.372Z,2.80
2019-01-05T02:43:26.901Z,2.80
2019-01-05T02:47:12.066Z,2.80
2019-01-05T02:51:05.003Z,2.80
2019-01-05T02:54:40.542Z,2.90
2019-01-05T02:58:53.934Z,2.90
2019-01-05T03:02:26.802Z,2.90
2019-01-05T03:05:48.775Z,2.90
2019-01-05T03:09:15.694Z,2.90
2019-01-05T03:12:31.723Z,2.80
2019-01-05T03:15:44.380Z,2.80
2019-01-05T03:19:11.089Z,2.70
2019-01-05T03:22:44.427Z,2.70
2019-01-05T03:26:35.135Z,2.70
2019-01-05T03:29:50.112Z,2.70
2019-01-05T03:33:21.433Z,2.70
2019-01-05T03:36:58.982Z,2.70
2019-01-05T03:40:45.267Z,2.60
2019-01-05T03:44:23.866Z,2.50
2019-01-05T03:47:52.916Z,2.50
2019-01-05T03:51:06.724Z,2.50
2019-01-05T03:54:39.207Z,2.40
2019-01-05T03:57:54.196Z,2.40
2019-01-05T04:01:34.978Z,2.40
2019-01-05T04:05:06.765Z,2.40
2019-01-05T04:08:33.891Z,2.30
2019-01-05T04:12:09.568Z,2.30
2019-01-05T04:15:34.081Z,2.30
2019-01-05T04:19:22.237Z,2.30
2019-01-05T04:22:43.914Z,2.20
2019-01-05T04:26:08.752Z,2.20
2019-01-05T04:29:47.534Z,2.10
2019-01-05T04:33:11.806Z,2.00
2019-01-05T04:36:33.620Z,1.90
2019-01-05T04:39:58.921Z,1.90
2019-01-05T04:43:55.655Z,1.80
2019-01-05T04:47:28.416Z,1.70
2019-01-05T04:50:50.086Z,1.70
2019-01-05T04:54:24.466Z,1.60
2019-01-05T04:57:51.085Z,1.70
2019-01-05T05:01:38.237Z,1.70
2019-01-05T05:05:12.792Z,1.70
2019-01-05T05:08:52.394Z,1.70
2019-01-05T05:12:23.920Z,1.60
2019-01-05T05:15:52.764Z,1.70
2019-01-05T05:19:12.826Z,1.70
2019-01-05T05:23:03.218Z,1.70
2019-01-05T05:26:14.103Z,1.70
2019-01-05T05:29:58.839Z,1.70
2019-01-05T05:33:35.252Z,1.70
2019-01-05T05:37:12.769Z,1.60
2019-01-05T05:40:50.993Z,1.50
2019-01-05T05:44:18.003Z,1.50
2019-01-05T05:47:57.926Z,1.50
2019-01-05T05:51:48.949Z,1.40
2019-01-05T05:55:24.705Z,1.40
2019-01-05T05:58:45.863Z,1.40
2019-01-05T06:02:14.577Z,1.40
2019-01-05T06:05:57.001Z,1.40
2019-01-05T06:09:26.863Z,1.40
2019-01-05T06:12:54.028Z,1.40
2019-01-05T06:16:12.523Z,1.40
2019-01-05T06:19:42.924Z,1.40
2019-01-05T06:23:14.679Z,1.40
2019-01-05T06:26:48.583Z,1.40
2019-01-05T06:30:24.407Z,1.50
2019-01-05T06:34:10.708Z,1.50
2019-01-05T06:37:58.283Z,1.60
2019-01-05T06:41:27.017Z,1.60
2019-01-05T06:44:49.929Z,1.60
2019-01-05T06:48:32.248Z,1.70
2019-01-05T06:52:09.927Z,1.60
2019-01-05T06:55:53.195Z,1.50
2019-01-05T06:59:24.024Z,1.50
2019-01-05T07:02:37.686Z,1.60
2019-01-05T07:06:11.587Z,1.60
2019-01-05T07:09:41.883Z,1.60
2019-01-05T07:13:27.031Z,1.70
2019-01-05T07:17:06.443Z,1.80
2019-01-05T07:20:37.119Z,1.80
2019-01-05T07:24:02.541Z,1.80
2019-01-05T07:27:31.886Z,1.90
2019-01-05T07:30:59.089Z,1.90
2019-01-05T07:34:26.286Z,1.90
2019-01-05T07:38:06.508Z,2.00
2019-01-05T07:41:41.992Z,2.00
2019-01-05T07:45:20.141Z,2.10
2019-01-05T07:48:59.023Z,2.10
2019-01-05T07:52:30.841Z,2.20
2019-01-05T07:56:02.286Z,2.20
2019-01-05T07:59:41.565Z,2.20
2019-01-05T08:02:57.460Z,2.30
2019-01-05T08:06:37.839Z,2.30
2019-01-05T08:10:19.701Z,2.30
2019-01-05T08:14:00.799Z,2.30
2019-01-05T08:17:33.785Z,2.30
2019-01-05T08:20:59.267Z,2.30
2019-01-05T08:24:34.721Z,2.30
2019-01-05T08:28:14.235Z,2.30
2019-01-05T08:31:40.431Z,2.30
2019-01-05T08:35:13.534Z,2.30
2019-01-05T08:38:44.805Z,2.30
2019-01-05T08:42:10.552Z,2.30
2019-01-05T08:45:25.266Z,2.30
2019-01-05T08:49:18.020Z,2.30
2019-01-05T08:53:03.103Z,2.40
2019-01-05T08:56:23.404Z,2.50
2019-01-05T09:00:12.347Z,2.50
2019-01-05T09:03:48.205Z,2.50
2019-01-05T09:07:49.487Z,2.50
2019-01-05T09:11:21.936Z,2.50
2019-01-05T09:14:39.221Z,2.60
2019-01-05T09:18:07.890Z,2.60
2019-01-05T09:21:39.674Z,2.60
2019-01-05T09:25:22.786Z,2.60
2019-01-05T09:29:11.093Z,2.60
2019-01-05T09:32:54.123Z,2.60
2019-01-05T09:36:24.326Z,2.60
2019-01-05T09:40:25.416Z,2.60
2019-01-05T09:43:51.374Z,2.60
2019-01-05T09:47:54.256Z,2.60
2019-01-05T09:51:34.132Z,2.60
2019-01-05T09:55:35.892Z,2.70
2019-01-05T09:59:03.225Z,2.80
2019-01-05T10:02:42.418Z,2.90
2019-01-05T10:06:03.487Z,3.00
2019-01-05T10:09:40.229Z,3.00
2019-01-05T10:12:53.769Z,3.10
2019-01-05T10:16:26.473Z,3.10
2019-01-05T10:20:00.373Z,3.10
2019-01-05T10:23:36.607Z,3.10
2019-01-05T10:27:09.372Z,3.20
2019-01-05T10:30:41.134Z,3.20
2019-01-05T10:34:15.313Z,3.20
2019-01-05T10:37:40.886Z,3.20
2019-01-05T10:41:28.679Z,3.20
2019-01-05T10:45:01.848Z,3.30
2019-01-05T10:48:43.668Z,3.30
2019-01-05T10:52:17.999Z,3.40
2019-01-05T10:55:52.618Z,3.40
2019-01-05T10:59:19.965Z,3.40
2019-01-05T11:03:07.108Z,3.50
2019-01-05T11:06:53.311Z,3.50
2019-01-05T11:10:27.640Z,3.60
2019-01-05T11:13:52.426Z,3.60
2019-01-05T11:17:29.244Z,3.60
2019-01-05T11:21:18.027Z,3.60
2019-01-05T11:24:31.642Z,3.70
2019-01-05T11:28:23.078Z,3.70
2019-01-05T11:31:57.381Z,3.70
2019-01-05T11:35:19.783Z,3.70
2019-01-05T11:38:51.771Z,3.80
2019-01-05T11:42:24.802Z,3.80
2019-01-05T11:45:49.239Z,3.80
2019-01-05T11:49:22.409Z,3.80
2019-01-05T11:53:02.119Z,3.80
2019-01-05T11:56:51.781Z,3.90
2019-01-05T12:00:27.576Z,3.90
2019-01-05T12:04:02.987Z,3.90
2019-01-05T12:07:48.121Z,3.90
2019-01-05T12:11:20.355Z,3.90
2019-01-05T12:14:46.384Z,3.90
2019-01-05T12:18:11.006Z,4.00
2019-01-05T12:21:43.152Z,4.00
2019-01-05T12:25:09.022Z,4.00
2019-01-05T12:29:02.620Z,4.00
2019-01-05T12:32:49.990Z,4.10
2019-01-05T12:36:46.586Z,4.20
2019-01-05T12:40:32.524Z,4.10
2019-01-05T12:43:54.874Z,4.10
2019-01-05T12:47:14.418Z,4.10
2019-01-05T12:50:48.786Z,4.20
2019-01-05T12:54:36.699Z,4.20
2019-01-05T12:58:23.005Z,4.30
2019-01-05T13:02:05.819Z,4.30
2019-01-05T13:05:38.108Z,4.40
2019-01-05T13:09:48.568Z,4.30
2019-01-05T13:13:21.970Z,4.30
2019-01-05T13:17:11.119Z,4.40
2019-01-05T13:20:32.120Z,4.40
2019-01-05T13:24:16.153Z,4.40
2019-01-05T13:27:43.260Z,4.40
2019-01-05T13:31:29.282Z,4.40
2019-01-05T13:34:54.114Z,4.50
2019-01-05T13:38:30.893Z,4.60
2019-01-05T13:42:25.646Z,4.50
2019-01-05T13:45:50.126Z,4.50
2019-01-05T13:49:34.255Z,4.50
2019-01-05T13:53:02.218Z,4.60
2019-01-05T13:56:18.362Z,4.60
2019-01-05T13:59:07.685Z,4.60
2019-01-05T14:01:58.375Z,4.60
2019-01-05T14:04:48.996Z,4.60
2019-01-05T14:07:39.589Z,4.70
2019-01-05T14:10:30.231Z,4.70
2019-01-05T14:13:19.277Z,4.70
2019-01-05T14:16:08.242Z,4.70
2019-01-05T14:19:17.090Z,4.70
2019-01-05T14:22:10.561Z,4.80
2019-01-05T14:25:01.110Z,4.80
2019-01-05T14:27:56.104Z,4.80
2019-01-05T14:30:45.458Z,4.80
2019-01-05T14:33:46.954Z,4.80
2019-01-05T14:36:40.759Z,4.80
2019-01-05T14:39:34.161Z,4.80
2019-01-05T14:42:38.157Z,4.80
2019-01-05T14:45:40.871Z,4.80
2019-01-05T14:48:34.295Z,4.80
2019-01-05T14:51:23.370Z,4.90
2019-01-05T14:54:12.394Z,4.90
2019-01-05T14:57:04.532Z,4.80
2019-01-05T14:59:50.491Z,4.90
2019-01-05T15:02:44.411Z,4.90
2019-01-05T15:05:46.928Z,4.90
2019-01-05T15:08:49.538Z,4.90
2019-01-05T15:11:50.555Z,5.00
2019-01-05T15:14:41.014Z,5.00
2019-01-05T15:17:32.566Z,5.00
2019-01-05T15:20:22.319Z,5.00
2019-01-05T15:23:11.369Z,5.00
2019-01-05T15:26:02.046Z,5.00
2019-01-05T15:28:55.431Z,5.00
2019-01-05T15:31:46.718Z,5.00
2019-01-05T15:34:35.989Z,5.00
2019-01-05T15:37:24.958Z,5.00
2019-01-05T15:40:14.376Z,5.10
2019-01-05T15:43:17.411Z,5.00
2019-01-05T15:46:13.994Z,5.10
2019-01-05T15:49:21.197Z,5.10
2019-01-05T15:52:10.243Z,5.10
2019-01-05T15:54:53.220Z,5.10
2019-01-05T15:57:52.633Z,5.10
2019-01-05T16:00:43.383Z,5.10
2019-01-05T16:03:41.429Z,5.10
2019-01-05T16:06:50.007Z,5.10
2019-01-05T16:09:39.306Z,5.10
2019-01-05T16:12:30.022Z,5.10
2019-01-05T16:15:23.452Z,5.20
2019-01-05T16:18:22.662Z,5.20
2019-01-05T16:21:22.052Z,5.20
2019-01-05T16:24:11.383Z,5.20
2019-01-05T16:27:00.214Z,5.20
2019-01-05T16:29:52.643Z,5.20
2019-01-05T16:32:44.563Z,5.20
2019-01-05T16:35:41.136Z,5.20
2019-01-05T16:38:30.181Z,5.20
2019-01-05T16:41:20.883Z,5.20
2019-01-05T16:44:21.903Z,5.20
2019-01-05T16:47:22.577Z,5.30
2019-01-05T16:50:25.210Z,5.30
2019-01-05T16:53:14.212Z,5.30
2019-01-05T16:56:01.321Z,5.30
2019-01-05T16:59:05.604Z,5.30
2019-01-05T17:02:03.514Z,5.40
2019-01-05T17:04:54.254Z,5.30
2019-01-05T17:08:03.172Z,5.40
2019-01-05T17:11:06.442Z,5.40
2019-01-05T17:13:55.546Z,5.40
2019-01-05T17:16:45.910Z,5.40
2019-01-05T17:19:42.391Z,5.40
2019-01-05T17:22:31.512Z,5.40
2019-01-05T17:25:20.634Z,5.40
2019-01-05T17:28:09.674Z,5.50
2019-01-05T17:30:58.946Z,5.50
2019-01-05T17:33:42.679Z,5.50
2019-01-05T17:36:34.849Z,5.50
2019-01-05T17:39:29.865Z,5.50
2019-01-05T17:42:19.225Z,5.50
2019-01-05T17:45:10.357Z,5.50
2019-01-05T17:48:04.213Z,5.50
2019-01-05T17:51:09.751Z,5.50
2019-01-05T17:53:59.004Z,5.50
2019-01-05T17:56:48.065Z,5.50
2019-01-05T17:59:36.262Z,5.50
2019-01-05T18:02:19.954Z,5.50
2019-01-05T18:05:09.235Z,5.50
2019-01-05T18:08:15.125Z,5.50
2019-01-05T18:11:23.939Z,5.50
2019-01-05T18:14:13.000Z,5.50
2019-01-05T18:16:56.510Z,5.50
2019-01-05T18:19:56.282Z,5.50
2019-01-05T18:22:45.585Z,5.50
2019-01-05T18:25:39.121Z,5.50
2019-01-05T18:28:41.811Z,5.50
2019-01-05T18:31:37.604Z,5.50
2019-01-05T18:34:40.246Z,5.60
2019-01-05T18:37:36.814Z,5.70
2019-01-05T18:40:27.260Z,5.70
2019-01-05T18:43:15.906Z,5.70
2019-01-05T18:46:15.799Z,5.70
2019-01-05T18:49:05.108Z,5.70
2019-01-05T18:52:01.865Z,5.70
2019-01-05T18:54:58.376Z,5.70
2019-01-05T18:57:49.131Z,5.70
2019-01-05T19:00:38.534Z,5.80
2019-01-05T19:03:30.182Z,5.80
2019-01-05T19:06:33.098Z,5.80
2019-01-05T19:09:24.978Z,5.80
2019-01-05T19:12:14.302Z,5.80
2019-01-05T19:15:03.607Z,5.80
2019-01-05T19:18:03.701Z,5.80
2019-01-05T19:21:09.289Z,5.80
2019-01-05T19:23:59.644Z,5.80
2019-01-05T19:26:48.955Z,5.80
2019-01-05T19:29:34.618Z,5.80
2019-01-05T19:32:25.213Z,5.80
2019-01-05T19:35:20.000Z,5.80
2019-01-05T19:38:25.676Z,5.80
2019-01-05T19:41:16.365Z,5.80
2019-01-05T19:44:24.871Z,5.80
2019-01-05T19:47:15.592Z,5.80
2019-01-05T19:50:12.154Z,5.80
2019-01-05T19:53:02.516Z,5.80
2019-01-05T19:55:51.658Z,5.80
2019-01-05T19:58:42.462Z,5.80
2019-01-05T20:01:48.299Z,5.80
2019-01-05T20:04:37.667Z,5.80
2019-01-05T20:07:32.433Z,5.80
2019-01-05T20:10:26.139Z,5.80
2019-01-05T20:13:19.619Z,5.80
2019-01-05T20:16:19.192Z,5.80
2019-01-05T20:19:15.679Z,5.90
2019-01-05T20:22:12.118Z,5.90
2019-01-05T20:25:19.187Z,5.90
2019-01-05T20:28:15.711Z,5.80
2019-01-05T20:31:09.179Z,5.80
2019-01-05T20:33:59.634Z,5.80
2019-01-05T20:36:48.691Z,5.80
2019-01-05T20:39:39.332Z,5.80
2019-01-05T20:42:33.775Z,5.80
2019-01-05T20:45:39.674Z,5.70
2019-01-05T20:48:24.265Z,5.80
2019-01-05T20:51:17.755Z,5.80
2019-01-05T20:54:06.991Z,5.80
2019-01-05T20:56:51.200Z,5.80
2019-01-05T20:59:44.251Z,5.80
2019-01-05T21:02:43.860Z,5.80
2019-01-05T21:05:41.212Z,5.80
2019-01-05T21:08:30.482Z,5.80
2019-01-05T21:11:20.511Z,5.80
2019-01-05T21:14:11.155Z,5.80
2019-01-05T21:17:00.432Z,5.80
2019-01-05T21:20:03.140Z,5.80
2019-01-05T21:22:52.563Z,5.80
2019-01-05T21:25:41.533Z,5.90
2019-01-05T21:28:40.254Z,5.80
2019-01-05T21:31:42.758Z,5.80
2019-01-05T21:34:31.853Z,5.80
2019-01-05T21:37:21.161Z,5.90
2019-01-05T21:40:13.115Z,5.80
2019-01-05T21:43:02.167Z,5.80
2019-01-05T21:46:01.816Z,5.80
2019-01-05T21:48:51.087Z,5.80
2019-01-05T21:51:43.302Z,5.80
2019-01-05T21:54:32.435Z,5.80
2019-01-05T21:57:21.798Z,5.80
2019-01-05T22:00:19.291Z,5.80
2019-01-05T22:03:22.045Z,5.90
2019-01-05T22:06:05.990Z,5.80
2019-01-05T22:09:08.579Z,5.80
2019-01-05T22:12:01.948Z,5.90
2019-01-05T22:14:51.155Z,5.90
2019-01-05T22:17:44.864Z,5.80
2019-01-05T22:20:47.658Z,5.80
2019-01-05T22:23:52.949Z,5.80
2019-01-05T22:26:52.259Z,5.80
2019-01-05T22:29:41.338Z,5.80
2019-01-05T22:32:30.350Z,5.80
2019-01-05T22:35:20.990Z,5.80
2019-01-05T22:38:20.621Z,5.80
2019-01-05T22:41:23.145Z,5.80
2019-01-05T22:44:13.772Z,5.80
2019-01-05T22:47:05.859Z,5.80
2019-01-05T22:49:53.600Z,5.80
2019-01-05T22:52:56.152Z,5.80
2019-01-05T22:55:45.250Z,5.80
2019-01-05T22:58:34.254Z,5.80
2019-01-05T23:01:24.939Z,5.80
2019-01-05T23:04:24.331Z,5.80
2019-01-05T23:07:08.618Z,5.80
2019-01-05T23:10:05.042Z,5.80
2019-01-05T23:12:55.679Z,5.80
2019-01-05T23:15:44.987Z,5.80
2019-01-05T23:18:53.970Z,5.80
2019-01-05T23:21:43.354Z,5.70
2019-01-05T23:24:51.932Z,5.80
2019-01-05T23:27:35.932Z,5.80
2019-01-05T23:30:25.296Z,5.80
2019-01-05T23:33:18.764Z,5.80
2019-01-05T23:36:15.197Z,5.80
2019-01-05T23:39:11.722Z,5.80
2019-01-05T23:42:20.560Z,5.80
2019-01-05T23:45:09.838Z,5.80
2019-01-05T23:48:09.489Z,5.80
2019-01-05T23:51:12.202Z,5.80
2019-01-05T23:54:01.249Z,5.80
2019-01-05T23:56:50.409Z,5.80
2019-01-05T23:59:39.809Z,5.70
